KMGC/MGC METAR and TAF weather

Enter ICAO airport designator
Station Type Date Time Source
KMGC METAR 2021/05/14 04:55 UTC NOAA

KMGC 140455Z AUTO 00000KT 10SM CLR 04/01 A3032 RMK AO2


Station Type Date Time Source
KMGC Decoded METAR 2021/05/14 04:55 UTC NOAA

Station name not available
May 14, 2021 - 12:55 AM EDT / 2021.05.14 0455 UTC
Wind: Calm:0
Visibility: 10 mile(s):0
Sky conditions: clear
Temperature: 39 F (4 C)
Dew Point: 33 F (1 C)
Relative Humidity: 80%
Pressure (altimeter): 30.32 in. Hg (1026 hPa)
ob: KMGC 140455Z AUTO 00000KT 10SM CLR 04/01 A3032 RMK AO2
cycle: 5

Station Type Date Time Source
KMGC TAF UTC NOAA

Error!

Example: see airport list